South Londonderry, Vermont
Current Conditions -  °F | °C
As of 2:54 PM on Sunday 23 Nov 2014 (Local Time) from KVSF Reporting Station
Clear Clear  
Wind Chill: 54°   Ceiling: Unl
Heat Index: 54°   Visibility: 10mi
Dew Point: 39°   Wind: 5mph
Humidity: 57%   Direction: 200°SSW
Pressure: 30.08"   Gusts: NA
Location:  43.15°N, 72.84°W
Report Text: KVSF 231954Z AUTO 20004KT 10SM CLR 12/04 A3008 RMK AO2 SLP188 T01220039
Loading
Personal Weather Stations






























Interactive Weather Map New forecast layout! Learn more

10-Day Weather Forecast

Advertisements
Track Severe Weather on mobile